Time;durP1;ratioP1;P1;durP2;ratioP2;P2;SDS_P1;SDS_P2;PMS_P1;PMS_P2;Temp;Humidity;BMP_temperature;BMP_pressure;BME280_temperature;BME280_humidity;BME280_pressure;Samples;Min_cycle;Max_cycle;Signal;HPM_P1;HPM_P2
2021/06/23 00:01:13;;;;;;;25.23;18.93;;;14.50;99.90;;;;;;5129081;28;20536;-89
2021/06/23 00:03:50;;;;;;;19.70;17.63;;;14.30;99.90;;;;;;5091765;28;20428;-89
2021/06/23 00:06:17;;;;;;;20.23;18.53;;;14.40;99.90;;;;;;5124775;28;20465;-89
2021/06/23 00:08:43;;;;;;;19.07;17.47;;;14.30;99.90;;;;;;5108028;28;20447;-90
2021/06/23 00:11:09;;;;;;;24.80;18.50;;;14.40;99.90;;;;;;5124675;28;20658;-90
2021/06/23 00:13:36;;;;;;;20.57;18.77;;;;;;;;;;5124219;28;20177;-89
2021/06/23 00:16:07;;;;;;;21.30;19.23;;;14.40;99.90;;;;;;5107773;28;20245;-90
2021/06/23 00:18:34;;;;;;;21.87;19.20;;;14.30;99.90;;;;;;5107310;28;20423;-89
2021/06/23 00:21:00;;;;;;;19.20;16.80;;;14.30;99.90;;;;;;5109083;28;20420;-90
2021/06/23 00:23:29;;;;;;;19.23;17.23;;;14.40;99.90;;;;;;5111352;28;20416;-91
2021/06/23 00:25:56;;;;;;;24.07;19.53;;;14.40;99.90;;;;;;5106997;28;20464;-90
2021/06/23 00:28:23;;;;;;;21.13;19.03;;;;;;;;;;5090064;28;20416;-90
2021/06/23 00:30:49;;;;;;;19.27;17.47;;;;;;;;;;5091763;28;20423;-90
2021/06/23 00:33:20;;;;;;;19.47;17.57;;;;;;;;;;5092382;28;20511;-90
2021/06/23 00:35:46;;;;;;;17.57;16.07;;;;;;;;;;5093899;28;20414;-91
2021/06/23 00:38:12;;;;;;;19.93;18.10;;;;;;;;;;5109427;28;20493;-91
2021/06/23 00:40:39;;;;;;;19.60;17.70;;;;;;;;;;5114779;28;20415;-90
2021/06/23 00:43:06;;;;;;;19.67;18.03;;;;;;;;;;5113020;28;21056;-90
2021/06/23 00:45:33;;;;;;;19.10;16.77;;;;;;;;;;5091004;28;20408;-90
2021/06/23 00:48:08;;;;;;;18.47;16.50;;;;;;;;;;5092901;28;20439;-90
2021/06/23 00:50:35;;;;;;;19.63;17.63;;;;;;;;;;5109387;28;20766;-89
2021/06/23 00:53:01;;;;;;;17.97;16.67;;;14.60;99.90;;;;;;5093041;28;20412;-89
2021/06/23 00:55:27;;;;;;;18.57;16.97;;;;;;;;;;5107507;28;20412;-90
2021/06/23 00:57:55;;;;;;;17.67;16.13;;;;;;;;;;5090744;28;20177;-89
2021/06/23 01:00:27;;;;;;;17.60;15.87;;;;;;;;;;5110133;28;20396;-91
2021/06/23 01:02:55;;;;;;;17.77;16.10;;;;;;;;;;5092036;28;20506;-91
2021/06/23 01:05:22;;;;;;;18.63;16.83;;;14.50;99.90;;;;;;5092889;28;20925;-90
2021/06/23 01:07:49;;;;;;;19.00;17.00;;;14.40;99.90;;;;;;5091886;28;20423;-91
2021/06/23 01:10:17;;;;;;;17.90;16.23;;;;;;;;;;5108767;28;20917;-91
2021/06/23 01:13:01;;;;;;;17.57;15.87;;;14.40;99.90;;;;;;5089098;28;20420;-90
2021/06/23 01:15:28;;;;;;;16.30;15.07;;;;;;;;;;5123366;28;20462;-91
2021/06/23 01:17:55;;;;;;;19.50;17.60;;;;;;;;;;5104369;28;20412;-90
2021/06/23 01:20:23;;;;;;;17.90;15.80;;;;;;;;;;5091007;28;20419;-91
2021/06/23 01:22:51;;;;;;;21.13;17.30;;;;;;;;;;5091291;28;20471;-90
2021/06/23 01:25:17;;;;;;;17.40;15.97;;;;;;;;;;5090047;28;20412;-91
2021/06/23 01:27:47;;;;;;;17.37;15.67;;;;;;;;;;5089282;28;20420;-90
2021/06/23 01:30:15;;;;;;;18.47;16.97;;;14.30;99.90;;;;;;5088665;28;20408;-90
2021/06/23 01:32:41;;;;;;;17.57;15.90;;;;;;;;;;5090306;28;20477;-91
2021/06/23 01:35:07;;;;;;;17.00;15.50;;;14.30;99.90;;;;;;5089862;28;20408;-91
2021/06/23 01:37:33;;;;;;;19.83;18.00;;;14.30;99.90;;;;;;5089891;28;20533;-90
2021/06/23 01:40:00;;;;;;;17.33;15.63;;;14.10;99.90;;;;;;5090202;28;20424;-91
2021/06/23 01:42:28;;;;;;;17.10;15.53;;;14.70;99.90;;;;;;5101185;28;20489;-91
2021/06/23 01:44:57;;;;;;;19.60;16.50;;;14.20;99.90;;;;;;5102617;28;20404;-90
2021/06/23 01:47:23;;;;;;;17.00;15.17;;;14.20;99.90;;;;;;5132760;28;20432;-91
2021/06/23 01:49:49;;;;;;;17.67;15.97;;;14.30;99.90;;;;;;5110592;28;20418;-90
2021/06/23 01:52:15;;;;;;;16.07;14.57;;;;;;;;;;5110957;28;20229;-91
2021/06/23 01:54:41;;;;;;;16.57;15.00;;;;;;;;;;5093182;28;20170;-91
2021/06/23 01:57:09;;;;;;;16.70;15.10;;;;;;;;;;5110744;28;20446;-91
2021/06/23 01:59:36;;;;;;;17.00;15.10;;;;;;;;;;5091455;28;20416;-90
2021/06/23 02:02:06;;;;;;;15.93;14.43;;;;;;;;;;5109251;28;20515;-91
2021/06/23 02:04:52;;;;;;;16.90;15.60;;;;;;;;;;5091979;28;20507;-91
2021/06/23 02:07:40;;;;;;;16.87;15.37;;;14.30;99.90;;;;;;5093686;28;20404;-92
2021/06/23 02:10:44;;;;;;;17.40;15.80;;;14.20;99.90;;;;;;5092585;28;20442;-91
2021/06/23 02:13:31;;;;;;;15.70;14.20;;;14.60;99.90;;;;;;5092941;28;20423;-91
2021/06/23 02:16:05;;;;;;;17.60;15.97;;;14.10;99.90;;;;;;5110720;28;20459;-91
2021/06/23 02:18:34;;;;;;;17.80;16.20;;;14.20;99.90;;;;;;5117219;28;20407;-89
2021/06/23 02:21:05;;;;;;;16.67;14.97;;;14.30;99.90;;;;;;5098268;28;20412;-90
2021/06/23 02:23:31;;;;;;;19.67;15.13;;;;;;;;;;5098216;28;20424;-89
2021/06/23 02:25:57;;;;;;;16.47;14.60;;;14.30;99.90;;;;;;5116148;28;20408;-91
2021/06/23 02:28:23;;;;;;;19.80;14.53;;;14.10;99.90;;;;;;5090261;28;20426;-90
2021/06/23 02:30:50;;;;;;;16.87;15.27;;;;;;;;;;5090810;28;20450;-90
2021/06/23 02:33:19;;;;;;;15.57;14.07;;;14.20;99.90;;;;;;5109869;28;20404;-91
2021/06/23 02:35:46;;;;;;;25.10;16.50;;;;;;;;;;5092846;28;20416;-91
2021/06/23 02:38:12;;;;;;;15.83;14.30;;;;;;;;;;5091531;28;20408;-91
2021/06/23 02:40:40;;;;;;;18.83;15.70;;;14.20;99.90;;;;;;5109234;28;20408;-89
2021/06/23 02:43:06;;;;;;;19.80;14.43;;;;;;;;;;5090793;28;20481;-90
2021/06/23 02:45:32;;;;;;;17.73;14.13;;;14.10;99.90;;;;;;5090655;28;20408;-90
2021/06/23 02:47:58;;;;;;;17.40;14.20;;;;;;;;;;5089940;28;20428;-90
2021/06/23 02:50:31;;;;;;;15.53;14.13;;;14.10;99.40;;;;;;5108256;28;20166;-91
2021/06/23 02:52:57;;;;;;;15.60;14.20;;;;;;;;;;5126100;28;20432;-90
2021/06/23 02:55:23;;;;;;;21.47;15.80;;;14.10;99.90;;;;;;5092640;28;20419;-90
2021/06/23 02:57:53;;;;;;;19.87;15.53;;;14.10;99.90;;;;;;5109453;28;20794;-90
2021/06/23 03:00:19;;;;;;;17.33;14.70;;;14.10;98.10;;;;;;5107972;28;20408;-90
2021/06/23 03:02:45;;;;;;;22.40;16.87;;;14.20;99.90;;;;;;5109551;28;20459;-90
2021/06/23 03:05:12;;;;;;;20.10;15.43;;;14.10;99.20;;;;;;5093418;28;20439;-90
2021/06/23 03:07:42;;;;;;;17.23;15.50;;;14.10;97.90;;;;;;5126427;28;20174;-90
2021/06/23 03:10:16;;;;;;;16.00;14.50;;;13.70;99.10;;;;;;5090128;28;20412;-91
2021/06/23 03:12:42;;;;;;;16.33;14.97;;;14.20;98.90;;;;;;5090426;28;20431;-90
2021/06/23 03:15:08;;;;;;;17.17;15.30;;;14.10;98.80;;;;;;5109958;28;20953;-90
2021/06/23 03:17:35;;;;;;;18.10;15.23;;;;;;;;;;5086325;28;20237;-90
2021/06/23 03:20:06;;;;;;;20.60;14.97;;;14.10;98.80;;;;;;5086599;28;20404;-89
2021/06/23 03:22:33;;;;;;;15.67;14.33;;;;;;;;;;5084294;28;20484;-91
2021/06/23 03:24:59;;;;;;;18.23;15.57;;;14.20;96.40;;;;;;5086673;28;20405;-92
2021/06/23 03:27:25;;;;;;;17.27;15.40;;;;;;;;;;5086444;28;20976;-90
2021/06/23 03:29:55;;;;;;;16.97;15.33;;;;;;;;;;5088083;28;20525;-89
2021/06/23 03:32:21;;;;;;;17.97;14.10;;;14.20;97.00;;;;;;5087244;28;20413;-90
2021/06/23 03:34:47;;;;;;;17.03;14.90;;;14.30;97.60;;;;;;5104159;28;20417;-90
2021/06/23 03:37:15;;;;;;;15.47;13.97;;;14.40;97.30;;;;;;5090120;28;20174;-91
2021/06/23 03:39:41;;;;;;;16.97;15.30;;;14.40;97.20;;;;;;5090099;28;20189;-90
2021/06/23 03:42:07;;;;;;;16.10;14.50;;;14.30;96.90;;;;;;5102617;28;20464;-90
2021/06/23 03:44:33;;;;;;;16.30;14.80;;;;;;;;;;5117529;28;20409;-90
2021/06/23 03:47:02;;;;;;;19.43;15.07;;;12.90;94.80;;;;;;5082679;28;20397;-90
2021/06/23 03:49:28;;;;;;;17.37;15.57;;;;;;;;;;5119519;28;20444;-90
2021/06/23 03:51:54;;;;;;;17.60;15.57;;;14.10;95.90;;;;;;5084274;28;20420;-89
2021/06/23 03:54:20;;;;;;;18.67;15.27;;;;;;;;;;5085273;28;20485;-91
2021/06/23 03:56:46;;;;;;;17.43;15.73;;;;;;;;;;5083604;28;20265;-89
2021/06/23 03:59:13;;;;;;;16.07;14.53;;;14.20;96.00;;;;;;5086079;28;20415;-90
2021/06/23 04:01:39;;;;;;;16.10;14.30;;;;;;;;;;5083975;28;20456;-89
2021/06/23 04:04:06;;;;;;;18.90;15.70;;;14.20;95.20;;;;;;5086244;28;20911;-89
2021/06/23 04:06:32;;;;;;;16.37;14.67;;;14.20;96.60;;;;;;5080603;28;20420;-88
2021/06/23 04:08:58;;;;;;;17.93;14.30;;;;;;;;;;5084977;28;20425;-90
2021/06/23 04:11:27;;;;;;;16.90;15.27;;;14.30;95.80;;;;;;5087702;28;20482;-90
2021/06/23 04:13:56;;;;;;;18.13;16.10;;;14.20;95.00;;;;;;5117857;28;20421;-90
2021/06/23 04:16:22;;;;;;;14.80;13.30;;;;;;;;;;5083449;28;20456;-90
2021/06/23 04:18:49;;;;;;;18.33;13.53;;;;;;;;;;5087598;28;20952;-89
2021/06/23 04:21:15;;;;;;;16.07;13.87;;;14.60;94.50;;;;;;5085447;28;20443;-89
2021/06/23 04:23:41;;;;;;;20.20;14.90;;;14.50;95.60;;;;;;5086665;28;20421;-89
2021/06/23 04:26:07;;;;;;;17.23;15.40;;;14.40;95.80;;;;;;5083882;28;20419;-89
2021/06/23 04:28:33;;;;;;;16.27;14.57;;;;;;;;;;5080995;28;20261;-89
2021/06/23 04:30:59;;;;;;;16.60;15.00;;;14.50;94.30;;;;;;5078008;28;20412;-88
2021/06/23 04:33:25;;;;;;;18.00;14.63;;;14.40;95.40;;;;;;5078498;28;20461;-90
2021/06/23 04:35:51;;;;;;;15.80;13.77;;;;;;;;;;5080897;28;20595;-90
2021/06/23 04:38:17;;;;;;;17.70;14.23;;;14.70;93.70;;;;;;5080232;28;20401;-89
2021/06/23 04:40:43;;;;;;;16.50;14.90;;;14.60;95.20;;;;;;5080382;28;20515;-89
2021/06/23 04:43:09;;;;;;;15.60;14.00;;;14.60;95.10;;;;;;5083319;28;20471;-90
2021/06/23 04:45:35;;;;;;;18.33;15.00;;;;;;;;;;5077005;28;20417;-88
2021/06/23 04:48:01;;;;;;;16.50;15.00;;;14.70;93.20;;;;;;5077090;28;20918;-89
2021/06/23 04:50:27;;;;;;;16.37;14.60;;;;;;;;;;5076717;28;20445;-90
2021/06/23 04:52:52;;;;;;;14.90;13.43;;;14.70;93.20;;;;;;5077567;28;20602;-90
2021/06/23 04:55:18;;;;;;;15.10;13.30;;;;;;;;;;5076118;28;20462;-89
2021/06/23 04:57:44;;;;;;;17.80;14.00;;;13.50;91.40;;;;;;5077888;28;20170;-90
2021/06/23 05:00:11;;;;;;;15.60;14.10;;;14.70;94.50;;;;;;5076459;28;20440;-90
2021/06/23 05:02:37;;;;;;;19.30;13.67;;;14.80;94.40;;;;;;5078230;28;20459;-89
2021/06/23 05:05:03;;;;;;;17.10;13.23;;;14.80;93.80;;;;;;5075903;28;20475;-90
2021/06/23 05:07:30;;;;;;;16.00;14.50;;;;;;;;;;5076823;28;20203;-90
2021/06/23 05:09:56;;;;;;;15.60;13.97;;;14.90;91.70;;;;;;5077690;28;20405;-88
2021/06/23 05:12:24;;;;;;;20.27;15.47;;;14.90;90.70;;;;;;5077790;28;20502;-91
2021/06/23 05:14:50;;;;;;;24.33;13.77;;;;;;;;;;5090419;28;20424;-90
2021/06/23 05:17:16;;;;;;;15.60;14.17;;;15.10;87.60;;;;;;5086662;28;20464;-90
2021/06/23 05:19:41;;;;;;;16.40;14.87;;;15.00;90.60;;;;;;5086593;28;20417;-91
2021/06/23 05:22:11;;;;;;;16.37;12.87;;;14.90;90.20;;;;;;5086979;28;20458;-90
2021/06/23 05:24:43;;;;;;;19.87;13.00;;;15.10;90.20;;;;;;5083299;28;20637;-89
2021/06/23 05:27:10;;;;;;;18.30;13.73;;;15.10;90.20;;;;;;5085114;28;20409;-90
2021/06/23 05:29:38;;;;;;;15.57;13.70;;;;;;;;;;5086693;28;20460;-90
2021/06/23 05:32:06;;;;;;;22.73;14.90;;;15.10;85.80;;;;;;5094185;28;20400;-89
2021/06/23 05:34:32;;;;;;;13.73;12.30;;;15.20;90.30;;;;;;5087949;28;20439;-91
2021/06/23 05:36:58;;;;;;;24.57;14.40;;;;;;;;;;5085648;28;20420;-88
2021/06/23 05:39:25;;;;;;;14.50;13.23;;;15.40;90.00;;;;;;5085840;28;20163;-91
2021/06/23 05:41:56;;;;;;;16.47;13.03;;;15.30;90.00;;;;;;5084750;28;20468;-90
2021/06/23 05:44:21;;;;;;;14.47;12.93;;;15.40;89.80;;;;;;5089538;28;20433;-90
2021/06/23 05:46:47;;;;;;;16.20;14.47;;;;;;;;;;5088331;28;21055;-91
2021/06/23 05:49:16;;;;;;;17.97;13.60;;;15.50;84.60;;;;;;5085731;28;20175;-89
2021/06/23 05:51:42;;;;;;;17.20;13.43;;;15.60;88.70;;;;;;5087789;28;20473;-87
2021/06/23 05:54:08;;;;;;;14.97;13.33;;;;;;;;;;5086440;28;20421;-91
2021/06/23 05:56:34;;;;;;;15.20;13.67;;;15.60;86.80;;;;;;5085703;28;20190;-90
2021/06/23 05:59:03;;;;;;;22.10;14.27;;;15.50;88.60;;;;;;5089462;28;20412;-90
2021/06/23 06:01:40;;;;;;;25.80;15.27;;;15.60;84.10;;;;;;5088720;28;20193;-91
2021/06/23 06:04:06;;;;;;;14.83;13.40;;;15.70;84.20;;;;;;5092124;28;20417;-88
2021/06/23 06:06:32;;;;;;;15.20;13.73;;;15.50;87.50;;;;;;5086258;28;20513;-89
2021/06/23 06:08:58;;;;;;;21.90;15.00;;;;;;;;;;5085398;28;20221;-90
2021/06/23 06:11:24;;;;;;;17.47;15.73;;;15.60;85.50;;;;;;5086927;28;20177;-89
2021/06/23 06:13:50;;;;;;;17.07;13.50;;;;;;;;;;5088191;28;20405;-90
2021/06/23 06:16:16;;;;;;;16.33;14.67;;;16.30;87.30;;;;;;5085920;28;20492;-91
2021/06/23 06:18:45;;;;;;;15.80;14.20;;;15.60;89.90;;;;;;5083485;28;20927;-89
2021/06/23 06:21:10;;;;;;;17.77;13.70;;;15.70;89.80;;;;;;5065246;28;20448;-91
2021/06/23 06:23:39;;;;;;;15.63;13.80;;;;;;;;;;5064480;28;20469;-90
2021/06/23 06:26:06;;;;;;;14.53;13.23;;;15.70;86.10;;;;;;5067865;28;20406;-89
2021/06/23 06:28:35;;;;;;;16.10;14.40;;;15.60;90.50;;;;;;5065070;28;20511;-90
2021/06/23 06:31:04;;;;;;;15.30;13.67;;;15.60;90.90;;;;;;5066358;28;20508;-90
2021/06/23 06:33:29;;;;;;;27.90;14.00;;;15.70;87.90;;;;;;5064665;28;20420;-90
2021/06/23 06:35:55;;;;;;;16.03;14.33;;;;;;;;;;5066790;28;20414;-92
2021/06/23 06:38:21;;;;;;;15.80;14.10;;;15.80;87.20;;;;;;5065241;28;20190;-90
2021/06/23 06:40:50;;;;;;;15.53;13.43;;;15.70;90.80;;;;;;5065119;28;20418;-90
2021/06/23 06:43:17;;;;;;;14.70;13.30;;;15.80;90.90;;;;;;4715758;28;10000000;-89
2021/06/23 06:45:49;;;;;;;17.33;14.40;;;16.50;89.80;;;;;;5045222;28;20198;-90
2021/06/23 06:48:17;;;;;;;15.47;14.00;;;16.70;90.70;;;;;;5064787;28;20410;-91
2021/06/23 06:50:42;;;;;;;15.43;13.93;;;16.00;92.40;;;;;;5059563;28;20440;-90
2021/06/23 06:53:09;;;;;;;16.90;13.13;;;;;;;;;;5060073;28;20477;-89
2021/06/23 06:55:34;;;;;;;19.90;14.10;;;16.20;93.10;;;;;;5055745;28;20414;-90
2021/06/23 06:58:04;;;;;;;15.00;13.50;;;16.20;93.80;;;;;;5053389;28;20528;-90
2021/06/23 07:00:29;;;;;;;26.10;14.20;;;16.40;91.30;;;;;;5082665;28;20175;-89
2021/06/23 07:02:55;;;;;;;18.83;13.97;;;16.50;91.70;;;;;;5079065;28;20469;-88
2021/06/23 07:05:23;;;;;;;14.37;13.10;;;16.60;90.90;;;;;;5065136;28;20417;-90
2021/06/23 07:07:57;;;;;;;16.57;13.00;;;16.80;89.80;;;;;;5079583;28;20420;-90
2021/06/23 07:10:23;;;;;;;16.43;15.00;;;16.70;86.60;;;;;;5064304;28;20436;-90
2021/06/23 07:12:53;;;;;;;16.40;14.23;;;16.60;85.00;;;;;;5069835;28;20421;-89
2021/06/23 07:15:19;;;;;;;13.73;12.33;;;16.90;86.10;;;;;;5071186;28;20171;-90
2021/06/23 07:17:48;;;;;;;13.73;12.50;;;16.90;84.60;;;;;;5092989;28;20426;-89
2021/06/23 07:20:13;;;;;;;13.43;12.23;;;17.00;79.80;;;;;;5082885;28;20240;-89
2021/06/23 07:22:39;;;;;;;13.83;12.40;;;17.10;83.30;;;;;;5098888;28;20456;-89
2021/06/23 07:25:06;;;;;;;16.53;13.37;;;17.10;82.30;;;;;;5115775;28;20412;-90
2021/06/23 07:27:31;;;;;;;16.67;13.57;;;17.20;82.60;;;;;;5097786;28;20166;-88
2021/06/23 07:29:57;;;;;;;18.40;14.40;;;17.20;83.50;;;;;;5099663;28;20427;-89
2021/06/23 07:32:26;;;;;;;15.40;13.83;;;17.40;84.60;;;;;;5095951;28;20178;-89
2021/06/23 07:37:18;;;;;;;14.73;13.10;;;17.70;90.60;;;;;;5099020;28;20498;-87
2021/06/23 07:39:44;;;;;;;18.60;12.97;;;18.10;91.10;;;;;;5098287;28;20170;-89
2021/06/23 07:42:11;;;;;;;14.03;12.77;;;18.30;89.10;;;;;;5095771;28;20464;-90
2021/06/23 07:44:54;;;;;;;15.07;13.57;;;18.30;94.60;;;;;;5102509;28;20434;-88
2021/06/23 07:47:23;;;;;;;14.00;12.40;;;18.80;91.80;;;;;;5085529;28;20428;-89
2021/06/23 07:49:57;;;;;;;20.33;13.90;;;18.90;93.60;;;;;;5084886;28;20412;-89
2021/06/23 07:52:38;;;;;;;13.70;12.50;;;19.00;87.40;;;;;;5091284;28;20439;-92
2021/06/23 07:55:42;;;;;;;15.37;13.70;;;18.40;79.80;;;;;;5071178;28;20416;-90
2021/06/23 08:01:25;;;;;;;17.93;13.97;;;18.80;81.10;;;;;;5107836;28;20410;-89
2021/06/23 08:09:35;;;;;;;17.87;13.50;;;18.70;85.00;;;;;;5063286;28;20425;-90
2021/06/23 08:12:15;;;;;;;17.90;12.63;;;18.90;90.30;;;;;;5097977;28;20420;-92
2021/06/23 08:14:41;;;;;;;13.83;12.47;;;18.80;91.70;;;;;;5102321;28;20400;-90
2021/06/23 08:17:08;;;;;;;16.63;13.03;;;19.10;88.20;;;;;;5086438;28;20471;-90
2021/06/23 08:19:33;;;;;;;12.73;11.63;;;18.80;86.50;;;;;;5087531;28;20315;-87
2021/06/23 08:22:02;;;;;;;19.37;13.40;;;19.00;88.30;;;;;;5091442;28;20919;-92
2021/06/23 08:24:28;;;;;;;14.40;12.80;;;19.10;85.30;;;;;;5091006;28;20170;-91
2021/06/23 08:26:55;;;;;;;15.33;13.80;;;19.10;90.10;;;;;;5110595;28;20420;-92
2021/06/23 08:29:28;;;;;;;17.00;13.37;;;19.20;89.20;;;;;;5089867;28;20532;-93
2021/06/23 08:31:59;;;;;;;14.53;13.23;;;19.20;84.20;;;;;;5109622;28;20201;-91
2021/06/23 08:34:28;;;;;;;13.53;12.30;;;18.90;90.70;;;;;;5088549;28;20427;-91
2021/06/23 08:36:54;;;;;;;22.73;14.57;;;18.80;92.60;;;;;;5109815;28;20439;-91
2021/06/23 08:39:30;;;;;;;15.30;14.10;;;18.70;92.60;;;;;;5093573;28;20427;-91
2021/06/23 08:41:58;;;;;;;14.23;12.77;;;18.80;87.00;;;;;;5088264;28;20479;-90
2021/06/23 08:44:26;;;;;;;14.87;13.37;;;18.90;85.40;;;;;;5092366;28;20419;-92
2021/06/23 08:47:01;;;;;;;14.70;13.20;;;18.80;86.80;;;;;;5088600;28;20427;-92
2021/06/23 08:49:38;;;;;;;13.30;12.10;;;18.90;79.80;;;;;;5089925;28;20932;-92
2021/06/23 08:52:07;;;;;;;13.13;11.83;;;18.80;81.70;;;;;;5088604;28;20416;-90
2021/06/23 08:54:33;;;;;;;18.27;12.97;;;18.60;75.70;;;;;;5086430;28;20400;-90
2021/06/23 08:56:59;;;;;;;13.97;12.77;;;;;;;;;;5087637;28;20418;-91
2021/06/23 08:59:27;;;;;;;16.20;12.60;;;18.70;76.50;;;;;;5088480;28;20211;-90
2021/06/23 09:01:54;;;;;;;21.73;14.33;;;18.60;77.40;;;;;;5090423;28;20478;-86
2021/06/23 09:04:25;;;;;;;15.67;13.73;;;18.40;81.60;;;;;;5105961;28;20481;-90
2021/06/23 09:07:04;;;;;;;13.70;12.30;;;18.50;83.30;;;;;;5088321;28;20404;-89
2021/06/23 09:09:35;;;;;;;12.77;11.50;;;18.70;79.80;;;;;;5072879;28;20530;-91
2021/06/23 09:12:04;;;;;;;12.63;11.37;;;18.80;83.80;;;;;;5105908;28;20467;-91
2021/06/23 09:14:42;;;;;;;16.30;11.70;;;19.00;84.60;;;;;;5107914;28;20471;-90
2021/06/23 09:17:19;;;;;;;13.00;11.70;;;19.30;91.40;;;;;;5090915;28;20460;-91
2021/06/23 09:19:48;;;;;;;12.97;11.80;;;19.40;87.60;;;;;;5088108;28;20429;-92
2021/06/23 09:22:38;;;;;;;11.97;10.07;;;19.50;81.10;;;;;;5084705;28;20456;-91
2021/06/23 09:25:12;;;;;;;11.20;10.27;;;19.80;92.10;;;;;;5086894;28;20498;-91
2021/06/23 09:27:56;;;;;;;67.63;38.10;;;19.80;62.30;;;;;;5081671;28;20412;-91
2021/06/23 09:30:44;;;;;;;20.90;14.60;;;20.00;65.20;;;;;;5080586;28;20455;-90
2021/06/23 09:33:25;;;;;;;26.27;17.97;;;20.30;66.50;;;;;;5080668;28;20426;-91
2021/06/23 09:35:59;;;;;;;12.40;11.40;;;20.50;63.70;;;;;;5081779;28;20413;-93
2021/06/23 09:38:33;;;;;;;16.97;13.17;;;20.10;65.20;;;;;;5076798;28;20416;-93
2021/06/23 09:41:00;;;;;;;15.70;10.13;;;20.60;61.60;;;;;;5074534;28;20429;-89
2021/06/23 09:43:40;;;;;;;12.57;11.43;;;20.30;64.60;;;;;;4711171;28;9999781;-91
2021/06/23 09:46:14;;;;;;;17.33;12.07;;;20.30;60.10;;;;;;5078189;28;20176;-92
2021/06/23 09:48:47;;;;;;;10.73;10.03;;;20.40;63.60;;;;;;5077796;28;20409;-93
2021/06/23 09:51:18;;;;;;;14.60;9.97;;;20.30;62.10;;;;;;5078510;28;20424;-92
2021/06/23 09:53:44;;;;;;;12.40;11.10;;;20.30;62.30;;;;;;5064861;28;20486;-94
2021/06/23 09:56:37;;;;;;;13.50;12.20;;;20.00;62.00;;;;;;5100597;28;20415;-93
2021/06/23 09:59:05;;;;;;;11.60;10.70;;;19.80;59.60;;;;;;5100728;28;20438;-90
2021/06/23 10:01:39;;;;;;;14.87;10.37;;;20.40;60.80;;;;;;5102200;28;20427;-91
2021/06/23 10:04:09;;;;;;;12.30;11.07;;;19.80;63.60;;;;;;5105062;28;20511;-93
2021/06/23 10:06:45;;;;;;;9.53;8.83;;;19.90;63.70;;;;;;5096662;28;20424;-91
2021/06/23 10:09:19;;;;;;;15.57;14.07;;;20.00;60.40;;;;;;5087229;28;20436;-92
2021/06/23 10:11:46;;;;;;;13.90;12.60;;;19.30;66.20;;;;;;5069025;28;20476;-91
2021/06/23 10:14:12;;;;;;;13.70;12.37;;;19.40;66.30;;;;;;5082775;28;20420;-91
2021/06/23 10:16:39;;;;;;;12.90;10.33;;;19.40;66.20;;;;;;5082168;28;20465;-89
2021/06/23 10:19:06;;;;;;;11.77;10.53;;;19.60;60.80;;;;;;5089222;28;20492;-91
2021/06/23 10:21:33;;;;;;;11.00;10.10;;;19.90;65.60;;;;;;5090104;28;20397;-92
2021/06/23 10:24:09;;;;;;;17.47;11.03;;;20.00;63.80;;;;;;5085041;28;20438;-93
2021/06/23 10:26:46;;;;;;;16.17;10.60;;;20.10;63.00;;;;;;5089675;28;20487;-90
2021/06/23 10:29:14;;;;;;;23.73;20.07;;;20.30;60.50;;;;;;5083111;28;20469;-91
2021/06/23 10:31:42;;;;;;;13.97;11.20;;;20.60;62.50;;;;;;5084131;28;20417;-91
2021/06/23 10:34:09;;;;;;;11.43;10.53;;;20.80;78.70;;;;;;5087627;28;20417;-91
2021/06/23 10:36:35;;;;;;;15.30;11.87;;;21.00;75.40;;;;;;5083616;28;20436;-91
2021/06/23 10:39:04;;;;;;;23.87;21.40;;;21.40;50.80;;;;;;5082751;28;20441;-92
2021/06/23 10:41:35;;;;;;;11.70;10.03;;;22.80;52.10;;;;;;5080973;28;20167;-91
2021/06/23 10:44:25;;;;;;;10.60;9.77;;;21.80;50.50;;;;;;5080862;28;20450;-91
2021/06/23 10:46:54;;;;;;;12.00;10.43;;;22.60;49.50;;;;;;5081385;28;20513;-91
2021/06/23 10:49:43;;;;;;;12.03;10.40;;;25.90;51.30;;;;;;5080283;28;20409;-92
2021/06/23 10:52:39;;;;;;;23.03;19.10;;;25.50;49.70;;;;;;5075070;28;20424;-91
2021/06/23 10:55:27;;;;;;;11.73;10.67;;;23.20;47.60;;;;;;5085732;28;20520;-91
2021/06/23 10:57:55;;;;;;;12.90;9.80;;;23.30;58.20;;;;;;5084522;28;20428;-92
2021/06/23 11:00:21;;;;;;;10.50;9.57;;;23.80;57.10;;;;;;5080711;28;20421;-91
2021/06/23 11:03:06;;;;;;;11.43;9.40;;;24.20;56.70;;;;;;5080724;28;20468;-91
2021/06/23 11:05:44;;;;;;;12.90;10.97;;;24.50;54.00;;;;;;5086644;28;20393;-91
2021/06/23 11:08:30;;;;;;;14.20;11.50;;;24.70;53.10;;;;;;5081485;28;20417;-92
2021/06/23 11:10:58;;;;;;;11.33;10.27;;;24.90;53.30;;;;;;5086399;28;20426;-91
2021/06/23 11:13:28;;;;;;;45.33;22.73;;;24.70;52.00;;;;;;5084850;28;20554;-90
2021/06/23 11:15:54;;;;;;;11.47;10.67;;;24.90;52.10;;;;;;5085353;28;20465;-91
2021/06/23 11:18:39;;;;;;;17.60;12.00;;;25.30;49.90;;;;;;5091580;28;20555;-92
2021/06/23 11:21:16;;;;;;;14.87;10.80;;;29.00;43.80;;;;;;5088753;28;20408;-91
2021/06/23 11:24:12;;;;;;;10.37;9.63;;;26.70;41.20;;;;;;5106229;28;20455;-91
2021/06/23 11:26:45;;;;;;;12.00;10.47;;;27.80;39.50;;;;;;5102993;28;20408;-93
2021/06/23 11:29:10;;;;;;;11.40;10.30;;;28.70;39.40;;;;;;5105392;28;20423;-93
2021/06/23 11:31:46;;;;;;;13.07;11.83;;;27.40;41.30;;;;;;5090070;28;20400;-93
2021/06/23 11:34:43;;;;;;;12.67;11.57;;;25.30;37.30;;;;;;5085528;28;20659;-91
2021/06/23 11:37:15;;;;;;;13.83;10.90;;;26.80;39.60;;;;;;5087803;28;20423;-91
2021/06/23 11:39:41;;;;;;;12.20;11.10;;;28.40;42.70;;;;;;5103744;28;20833;-91
2021/06/23 11:42:17;;;;;;;12.93;11.43;;;27.10;42.70;;;;;;4754568;28;9999840;-94
2021/06/23 11:44:48;;;;;;;14.13;11.00;;;28.40;41.90;;;;;;5111171;28;20169;-89
2021/06/23 11:47:14;;;;;;;13.10;12.13;;;25.00;41.60;;;;;;5108650;28;20404;-92
2021/06/23 11:49:45;;;;;;;11.60;10.80;;;27.90;47.50;;;;;;5107739;28;20412;-91
2021/06/23 11:52:14;;;;;;;13.27;11.27;;;24.30;48.20;;;;;;5090375;28;20174;-90
2021/06/23 11:54:44;;;;;;;12.93;11.67;;;25.90;47.70;;;;;;5089332;28;20427;-91
2021/06/23 11:57:10;;;;;;;13.13;12.00;;;24.60;48.40;;;;;;5087863;28;20424;-91
2021/06/23 11:59:36;;;;;;;12.33;11.47;;;24.40;48.50;;;;;;5089389;28;20416;-89
2021/06/23 12:02:03;;;;;;;13.57;12.27;;;24.40;49.00;;;;;;5107422;28;20519;-92
2021/06/23 12:04:33;;;;;;;13.30;12.10;;;23.90;50.40;;;;;;5091798;28;20428;-91
2021/06/23 12:06:59;;;;;;;96.37;74.97;;;23.60;47.70;;;;;;5091253;28;20415;-91
2021/06/23 12:09:25;;;;;;;15.97;14.53;;;24.10;49.50;;;;;;5091974;28;20424;-90
2021/06/23 12:11:53;;;;;;;14.30;12.83;;;24.40;48.90;;;;;;5109941;28;20461;-90
2021/06/23 12:14:52;;;;;;;18.20;14.60;;;24.30;48.70;;;;;;5107721;28;20404;-90
2021/06/23 12:17:20;;;;;;;16.13;14.43;;;24.60;48.10;;;;;;5090640;28;20467;-93
2021/06/23 12:19:52;;;;;;;17.53;14.43;;;24.40;48.60;;;;;;5090043;28;20502;-91
2021/06/23 12:22:20;;;;;;;16.80;15.07;;;24.10;48.30;;;;;;5109580;28;20457;-89
2021/06/23 12:24:48;;;;;;;16.33;14.97;;;24.30;48.40;;;;;;5106265;28;20416;-90
2021/06/23 12:27:17;;;;;;;34.23;28.50;;;24.60;45.90;;;;;;5104778;28;20416;-91
2021/06/23 12:29:42;;;;;;;25.10;19.47;;;24.80;47.50;;;;;;5087168;28;20424;-91
2021/06/23 12:32:15;;;;;;;21.33;19.03;;;25.00;47.50;;;;;;5103239;28;20895;-91
2021/06/23 12:34:41;;;;;;;18.57;17.00;;;27.90;46.70;;;;;;5088257;28;20251;-92
2021/06/23 12:37:07;;;;;;;19.07;17.27;;;25.80;44.40;;;;;;5091869;28;20835;-92
2021/06/23 12:39:33;;;;;;;14.57;13.10;;;26.30;44.20;;;;;;5110851;28;20225;-89
2021/06/23 12:42:01;;;;;;;14.40;13.50;;;27.40;44.60;;;;;;5086841;28;20265;-90
2021/06/23 12:44:45;;;;;;;14.87;13.37;;;25.30;45.30;;;;;;5102305;28;20455;-91
2021/06/23 12:47:18;;;;;;;14.70;13.50;;;27.50;42.00;;;;;;5087449;28;20412;-91
2021/06/23 12:49:50;;;;;;;43.70;33.27;;;28.90;42.70;;;;;;5108201;28;20412;-91
2021/06/23 12:52:18;;;;;;;18.07;16.43;;;28.90;45.30;;;;;;5104461;28;20488;-90
2021/06/23 12:54:46;;;;;;;17.87;16.20;;;25.30;45.60;;;;;;5086465;28;20408;-89
2021/06/23 12:57:13;;;;;;;14.20;12.90;;;25.30;44.70;;;;;;5103390;28;20166;-89
2021/06/23 12:59:39;;;;;;;15.33;13.87;;;25.60;43.80;;;;;;5104171;28;20410;-92
2021/06/23 13:02:05;;;;;;;14.87;13.63;;;27.10;46.30;;;;;;5102353;28;20460;-91
2021/06/23 13:04:30;;;;;;;15.13;13.40;;;27.50;45.80;;;;;;5104295;28;20170;-91
2021/06/23 13:06:56;;;;;;;15.90;14.60;;;26.50;44.20;;;;;;5089812;28;20687;-87
2021/06/23 13:09:24;;;;;;;16.50;14.90;;;26.60;43.90;;;;;;5096505;28;20261;-89
2021/06/23 13:11:50;;;;;;;18.23;16.70;;;26.70;45.70;;;;;;5088403;28;20174;-90